sensor_id;sensor_type;location;lat;lon;timestamp;P1;durP1;ratioP1;P2;durP2;ratioP2
68910;SDS011;55953;51.650;-0.522;2022-07-21T00:00:55;10.60;;;4.60;;
68910;SDS011;55953;51.650;-0.522;2022-07-21T00:03:23;10.30;;;4.40;;
68910;SDS011;55953;51.650;-0.522;2022-07-21T00:05:51;9.50;;;4.70;;
68910;SDS011;55953;51.650;-0.522;2022-07-21T00:08:19;12.30;;;4.90;;
68910;SDS011;55953;51.650;-0.522;2022-07-21T00:10:47;9.20;;;4.80;;
68910;SDS011;55953;51.650;-0.522;2022-07-21T00:13:15;10.50;;;4.70;;
68910;SDS011;55953;51.650;-0.522;2022-07-21T00:15:43;10.40;;;4.70;;
68910;SDS011;55953;51.650;-0.522;2022-07-21T00:18:11;11.60;;;5.00;;
68910;SDS011;55953;51.650;-0.522;2022-07-21T00:20:39;10.90;;;5.10;;
68910;SDS011;55953;51.650;-0.522;2022-07-21T00:23:07;10.70;;;4.40;;
68910;SDS011;55953;51.650;-0.522;2022-07-21T00:25:35;12.60;;;4.60;;
68910;SDS011;55953;51.650;-0.522;2022-07-21T00:28:04;8.60;;;4.40;;
68910;SDS011;55953;51.650;-0.522;2022-07-21T00:30:34;8.30;;;4.40;;
68910;SDS011;55953;51.650;-0.522;2022-07-21T00:33:02;7.90;;;4.20;;
68910;SDS011;55953;51.650;-0.522;2022-07-21T00:35:30;9.20;;;4.50;;
68910;SDS011;55953;51.650;-0.522;2022-07-21T00:37:58;9.00;;;4.20;;
68910;SDS011;55953;51.650;-0.522;2022-07-21T00:40:25;8.50;;;4.80;;
68910;SDS011;55953;51.650;-0.522;2022-07-21T00:42:53;12.40;;;4.00;;
68910;SDS011;55953;51.650;-0.522;2022-07-21T00:45:22;11.90;;;4.80;;
68910;SDS011;55953;51.650;-0.522;2022-07-21T00:47:50;9.00;;;4.30;;
68910;SDS011;55953;51.650;-0.522;2022-07-21T00:50:19;11.30;;;4.00;;
68910;SDS011;55953;51.650;-0.522;2022-07-21T00:52:48;9.90;;;3.90;;
68910;SDS011;55953;51.650;-0.522;2022-07-21T00:55:19;6.30;;;4.20;;
68910;SDS011;55953;51.650;-0.522;2022-07-21T00:57:49;10.90;;;4.20;;
68910;SDS011;55953;51.650;-0.522;2022-07-21T01:00:24;9.40;;;4.20;;
68910;SDS011;55953;51.650;-0.522;2022-07-21T01:02:56;9.60;;;3.70;;
68910;SDS011;55953;51.650;-0.522;2022-07-21T01:05:25;10.80;;;4.20;;
68910;SDS011;55953;51.650;-0.522;2022-07-21T01:07:55;11.20;;;4.00;;
68910;SDS011;55953;51.650;-0.522;2022-07-21T01:10:24;8.60;;;3.80;;
68910;SDS011;55953;51.650;-0.522;2022-07-21T01:12:52;9.70;;;4.00;;
68910;SDS011;55953;51.650;-0.522;2022-07-21T01:15:21;6.10;;;3.50;;
68910;SDS011;55953;51.650;-0.522;2022-07-21T01:17:50;8.40;;;3.50;;
68910;SDS011;55953;51.650;-0.522;2022-07-21T01:20:22;10.00;;;3.50;;
68910;SDS011;55953;51.650;-0.522;2022-07-21T01:22:54;8.10;;;3.50;;
68910;SDS011;55953;51.650;-0.522;2022-07-21T01:25:25;6.50;;;3.60;;
68910;SDS011;55953;51.650;-0.522;2022-07-21T01:27:53;9.00;;;3.40;;
68910;SDS011;55953;51.650;-0.522;2022-07-21T01:30:21;9.70;;;3.50;;
68910;SDS011;55953;51.650;-0.522;2022-07-21T01:32:49;8.80;;;3.40;;
68910;SDS011;55953;51.650;-0.522;2022-07-21T01:35:17;8.20;;;3.30;;
68910;SDS011;55953;51.650;-0.522;2022-07-21T01:37:46;5.80;;;3.00;;
68910;SDS011;55953;51.650;-0.522;2022-07-21T01:40:16;9.40;;;3.20;;
68910;SDS011;55953;51.650;-0.522;2022-07-21T01:43:04;9.60;;;3.00;;
68910;SDS011;55953;51.650;-0.522;2022-07-21T01:45:40;9.70;;;3.10;;
68910;SDS011;55953;51.650;-0.522;2022-07-21T01:48:08;6.80;;;3.30;;
68910;SDS011;55953;51.650;-0.522;2022-07-21T01:50:37;9.50;;;2.90;;
68910;SDS011;55953;51.650;-0.522;2022-07-21T01:53:05;6.00;;;2.90;;
68910;SDS011;55953;51.650;-0.522;2022-07-21T01:55:33;8.60;;;3.20;;
68910;SDS011;55953;51.650;-0.522;2022-07-21T01:58:01;9.90;;;2.80;;
68910;SDS011;55953;51.650;-0.522;2022-07-21T02:00:29;8.90;;;2.70;;
68910;SDS011;55953;51.650;-0.522;2022-07-21T02:02:56;6.70;;;3.00;;
68910;SDS011;55953;51.650;-0.522;2022-07-21T02:05:24;5.40;;;2.40;;
68910;SDS011;55953;51.650;-0.522;2022-07-21T02:07:52;8.80;;;2.60;;
68910;SDS011;55953;51.650;-0.522;2022-07-21T02:10:20;5.80;;;2.60;;
68910;SDS011;55953;51.650;-0.522;2022-07-21T02:12:48;9.80;;;2.90;;
68910;SDS011;55953;51.650;-0.522;2022-07-21T02:15:16;4.90;;;2.20;;
68910;SDS011;55953;51.650;-0.522;2022-07-21T02:17:44;7.60;;;2.60;;
68910;SDS011;55953;51.650;-0.522;2022-07-21T02:20:12;11.90;;;2.70;;
68910;SDS011;55953;51.650;-0.522;2022-07-21T02:22:39;7.90;;;3.00;;
68910;SDS011;55953;51.650;-0.522;2022-07-21T02:25:07;8.20;;;2.20;;
68910;SDS011;55953;51.650;-0.522;2022-07-21T02:27:36;8.70;;;2.80;;
68910;SDS011;55953;51.650;-0.522;2022-07-21T02:30:05;5.70;;;2.50;;
68910;SDS011;55953;51.650;-0.522;2022-07-21T02:32:33;9.10;;;2.90;;
68910;SDS011;55953;51.650;-0.522;2022-07-21T02:35:01;6.10;;;2.80;;
68910;SDS011;55953;51.650;-0.522;2022-07-21T02:37:30;8.50;;;2.50;;
68910;SDS011;55953;51.650;-0.522;2022-07-21T02:39:58;8.20;;;2.60;;
68910;SDS011;55953;51.650;-0.522;2022-07-21T02:42:25;7.30;;;2.00;;
68910;SDS011;55953;51.650;-0.522;2022-07-21T02:44:53;8.70;;;2.60;;
68910;SDS011;55953;51.650;-0.522;2022-07-21T02:47:21;8.80;;;2.40;;
68910;SDS011;55953;51.650;-0.522;2022-07-21T02:49:49;7.70;;;2.60;;
68910;SDS011;55953;51.650;-0.522;2022-07-21T02:52:18;10.40;;;2.80;;
68910;SDS011;55953;51.650;-0.522;2022-07-21T02:54:48;7.60;;;2.60;;
68910;SDS011;55953;51.650;-0.522;2022-07-21T02:57:16;9.10;;;2.90;;
68910;SDS011;55953;51.650;-0.522;2022-07-21T02:59:43;9.70;;;2.70;;
68910;SDS011;55953;51.650;-0.522;2022-07-21T03:02:11;6.80;;;2.50;;
68910;SDS011;55953;51.650;-0.522;2022-07-21T03:04:39;7.80;;;2.50;;
68910;SDS011;55953;51.650;-0.522;2022-07-21T03:07:07;6.70;;;2.40;;
68910;SDS011;55953;51.650;-0.522;2022-07-21T03:09:35;6.50;;;2.50;;
68910;SDS011;55953;51.650;-0.522;2022-07-21T03:12:03;8.70;;;2.60;;
68910;SDS011;55953;51.650;-0.522;2022-07-21T03:14:30;9.70;;;2.70;;
68910;SDS011;55953;51.650;-0.522;2022-07-21T03:16:58;11.00;;;2.80;;
68910;SDS011;55953;51.650;-0.522;2022-07-21T03:19:28;6.40;;;2.70;;
68910;SDS011;55953;51.650;-0.522;2022-07-21T03:21:56;7.70;;;2.80;;
68910;SDS011;55953;51.650;-0.522;2022-07-21T03:24:23;8.40;;;2.70;;
68910;SDS011;55953;51.650;-0.522;2022-07-21T03:26:52;6.70;;;2.70;;
68910;SDS011;55953;51.650;-0.522;2022-07-21T03:29:19;5.80;;;2.50;;
68910;SDS011;55953;51.650;-0.522;2022-07-21T03:31:47;10.60;;;3.10;;
68910;SDS011;55953;51.650;-0.522;2022-07-21T03:34:15;7.70;;;2.70;;
68910;SDS011;55953;51.650;-0.522;2022-07-21T03:36:43;8.70;;;2.80;;
68910;SDS011;55953;51.650;-0.522;2022-07-21T03:39:11;8.90;;;2.80;;
68910;SDS011;55953;51.650;-0.522;2022-07-21T03:41:39;7.30;;;2.70;;
68910;SDS011;55953;51.650;-0.522;2022-07-21T03:44:06;9.10;;;3.20;;
68910;SDS011;55953;51.650;-0.522;2022-07-21T03:46:34;11.50;;;3.00;;
68910;SDS011;55953;51.650;-0.522;2022-07-21T03:49:02;10.70;;;4.10;;
68910;SDS011;55953;51.650;-0.522;2022-07-21T03:51:30;12.00;;;2.90;;
68910;SDS011;55953;51.650;-0.522;2022-07-21T03:53:58;6.40;;;2.90;;
68910;SDS011;55953;51.650;-0.522;2022-07-21T03:56:26;9.20;;;3.10;;
68910;SDS011;55953;51.650;-0.522;2022-07-21T03:58:54;13.50;;;3.40;;
68910;SDS011;55953;51.650;-0.522;2022-07-21T04:01:23;6.90;;;2.70;;
68910;SDS011;55953;51.650;-0.522;2022-07-21T04:03:51;10.00;;;2.80;;
68910;SDS011;55953;51.650;-0.522;2022-07-21T04:06:18;9.60;;;3.20;;
68910;SDS011;55953;51.650;-0.522;2022-07-21T04:08:46;7.40;;;2.90;;
68910;SDS011;55953;51.650;-0.522;2022-07-21T04:11:14;8.30;;;2.90;;
68910;SDS011;55953;51.650;-0.522;2022-07-21T04:13:42;8.70;;;2.80;;
68910;SDS011;55953;51.650;-0.522;2022-07-21T04:16:10;7.70;;;2.50;;
68910;SDS011;55953;51.650;-0.522;2022-07-21T04:18:38;7.90;;;2.70;;
68910;SDS011;55953;51.650;-0.522;2022-07-21T04:21:06;7.80;;;2.80;;
68910;SDS011;55953;51.650;-0.522;2022-07-21T04:23:34;10.00;;;2.70;;
68910;SDS011;55953;51.650;-0.522;2022-07-21T04:26:02;7.10;;;2.40;;
68910;SDS011;55953;51.650;-0.522;2022-07-21T04:28:29;11.40;;;3.00;;
68910;SDS011;55953;51.650;-0.522;2022-07-21T04:30:57;6.10;;;2.70;;
68910;SDS011;55953;51.650;-0.522;2022-07-21T04:33:25;10.40;;;3.50;;
68910;SDS011;55953;51.650;-0.522;2022-07-21T04:35:53;8.10;;;2.90;;
68910;SDS011;55953;51.650;-0.522;2022-07-21T04:38:21;7.90;;;2.80;;
68910;SDS011;55953;51.650;-0.522;2022-07-21T04:40:49;8.50;;;2.50;;
68910;SDS011;55953;51.650;-0.522;2022-07-21T04:43:17;11.90;;;3.20;;
68910;SDS011;55953;51.650;-0.522;2022-07-21T04:45:45;7.20;;;2.60;;
68910;SDS011;55953;51.650;-0.522;2022-07-21T04:48:13;9.80;;;2.80;;
68910;SDS011;55953;51.650;-0.522;2022-07-21T04:50:41;9.90;;;2.50;;
68910;SDS011;55953;51.650;-0.522;2022-07-21T04:53:09;7.70;;;2.60;;
68910;SDS011;55953;51.650;-0.522;2022-07-21T04:55:38;8.70;;;2.60;;
68910;SDS011;55953;51.650;-0.522;2022-07-21T04:58:06;9.30;;;2.40;;
68910;SDS011;55953;51.650;-0.522;2022-07-21T05:00:34;7.60;;;2.50;;
68910;SDS011;55953;51.650;-0.522;2022-07-21T05:03:02;9.90;;;2.90;;
68910;SDS011;55953;51.650;-0.522;2022-07-21T05:05:30;7.20;;;2.40;;
68910;SDS011;55953;51.650;-0.522;2022-07-21T05:07:58;8.30;;;2.60;;
68910;SDS011;55953;51.650;-0.522;2022-07-21T05:10:26;10.30;;;2.80;;
68910;SDS011;55953;51.650;-0.522;2022-07-21T05:12:54;7.80;;;2.50;;
68910;SDS011;55953;51.650;-0.522;2022-07-21T05:15:21;14.00;;;2.60;;
68910;SDS011;55953;51.650;-0.522;2022-07-21T05:17:49;8.60;;;2.70;;
68910;SDS011;55953;51.650;-0.522;2022-07-21T05:20:17;8.20;;;2.30;;
68910;SDS011;55953;51.650;-0.522;2022-07-21T05:22:45;7.60;;;2.40;;
68910;SDS011;55953;51.650;-0.522;2022-07-21T05:25:13;8.70;;;2.80;;
68910;SDS011;55953;51.650;-0.522;2022-07-21T05:27:41;13.30;;;2.90;;
68910;SDS011;55953;51.650;-0.522;2022-07-21T05:30:09;12.60;;;2.50;;
68910;SDS011;55953;51.650;-0.522;2022-07-21T05:32:38;8.70;;;2.20;;
68910;SDS011;55953;51.650;-0.522;2022-07-21T05:35:15;11.20;;;2.90;;
68910;SDS011;55953;51.650;-0.522;2022-07-21T05:37:43;6.50;;;2.50;;
68910;SDS011;55953;51.650;-0.522;2022-07-21T05:40:13;8.60;;;2.40;;
68910;SDS011;55953;51.650;-0.522;2022-07-21T05:42:42;10.60;;;2.70;;
68910;SDS011;55953;51.650;-0.522;2022-07-21T05:45:11;7.00;;;2.40;;
68910;SDS011;55953;51.650;-0.522;2022-07-21T05:47:41;9.80;;;2.70;;
68910;SDS011;55953;51.650;-0.522;2022-07-21T05:50:09;8.70;;;2.60;;
68910;SDS011;55953;51.650;-0.522;2022-07-21T05:52:38;8.00;;;2.80;;
68910;SDS011;55953;51.650;-0.522;2022-07-21T05:55:06;6.30;;;2.50;;
68910;SDS011;55953;51.650;-0.522;2022-07-21T05:57:36;7.10;;;2.50;;
68910;SDS011;55953;51.650;-0.522;2022-07-21T06:00:13;7.20;;;2.60;;
68910;SDS011;55953;51.650;-0.522;2022-07-21T06:02:46;8.40;;;2.60;;
68910;SDS011;55953;51.650;-0.522;2022-07-21T06:07:41;11.90;;;2.80;;
68910;SDS011;55953;51.650;-0.522;2022-07-21T06:10:09;8.20;;;2.30;;
68910;SDS011;55953;51.650;-0.522;2022-07-21T06:12:43;10.40;;;2.70;;
68910;SDS011;55953;51.650;-0.522;2022-07-21T06:15:12;9.10;;;2.80;;
68910;SDS011;55953;51.650;-0.522;2022-07-21T06:17:43;10.30;;;2.50;;
68910;SDS011;55953;51.650;-0.522;2022-07-21T06:20:13;7.40;;;2.30;;
68910;SDS011;55953;51.650;-0.522;2022-07-21T06:22:41;11.00;;;3.20;;
68910;SDS011;55953;51.650;-0.522;2022-07-21T06:25:09;7.90;;;2.70;;
68910;SDS011;55953;51.650;-0.522;2022-07-21T06:27:37;11.60;;;2.80;;
68910;SDS011;55953;51.650;-0.522;2022-07-21T06:30:05;9.60;;;3.50;;
68910;SDS011;55953;51.650;-0.522;2022-07-21T06:32:34;11.60;;;3.00;;
68910;SDS011;55953;51.650;-0.522;2022-07-21T06:35:03;8.50;;;2.90;;
68910;SDS011;55953;51.650;-0.522;2022-07-21T06:37:31;9.00;;;2.80;;
68910;SDS011;55953;51.650;-0.522;2022-07-21T06:39:59;10.70;;;2.90;;
68910;SDS011;55953;51.650;-0.522;2022-07-21T06:42:27;10.10;;;3.20;;
68910;SDS011;55953;51.650;-0.522;2022-07-21T06:44:56;12.50;;;2.90;;
68910;SDS011;55953;51.650;-0.522;2022-07-21T06:47:24;9.30;;;2.90;;
68910;SDS011;55953;51.650;-0.522;2022-07-21T06:49:52;14.30;;;3.10;;
68910;SDS011;55953;51.650;-0.522;2022-07-21T06:52:20;8.00;;;2.90;;
68910;SDS011;55953;51.650;-0.522;2022-07-21T06:54:48;10.80;;;3.20;;
68910;SDS011;55953;51.650;-0.522;2022-07-21T06:57:16;7.60;;;2.80;;
68910;SDS011;55953;51.650;-0.522;2022-07-21T06:59:44;13.40;;;3.60;;
68910;SDS011;55953;51.650;-0.522;2022-07-21T07:02:12;11.40;;;3.60;;
68910;SDS011;55953;51.650;-0.522;2022-07-21T07:04:41;18.80;;;3.70;;
68910;SDS011;55953;51.650;-0.522;2022-07-21T07:07:09;8.60;;;3.30;;
68910;SDS011;55953;51.650;-0.522;2022-07-21T07:09:37;9.70;;;3.10;;
68910;SDS011;55953;51.650;-0.522;2022-07-21T07:12:06;11.50;;;4.10;;
68910;SDS011;55953;51.650;-0.522;2022-07-21T07:14:56;8.50;;;3.70;;
68910;SDS011;55953;51.650;-0.522;2022-07-21T07:17:23;10.40;;;3.70;;
68910;SDS011;55953;51.650;-0.522;2022-07-21T07:19:51;11.40;;;4.20;;
68910;SDS011;55953;51.650;-0.522;2022-07-21T07:22:19;10.60;;;3.70;;
68910;SDS011;55953;51.650;-0.522;2022-07-21T07:24:47;11.50;;;4.30;;
68910;SDS011;55953;51.650;-0.522;2022-07-21T07:27:15;13.20;;;4.00;;
68910;SDS011;55953;51.650;-0.522;2022-07-21T07:29:43;9.40;;;3.80;;
68910;SDS011;55953;51.650;-0.522;2022-07-21T07:32:10;13.70;;;4.50;;
68910;SDS011;55953;51.650;-0.522;2022-07-21T07:34:39;14.70;;;5.20;;
68910;SDS011;55953;51.650;-0.522;2022-07-21T07:37:07;10.50;;;4.50;;
68910;SDS011;55953;51.650;-0.522;2022-07-21T07:39:35;12.10;;;5.00;;
68910;SDS011;55953;51.650;-0.522;2022-07-21T07:42:05;12.70;;;4.60;;
68910;SDS011;55953;51.650;-0.522;2022-07-21T07:44:33;16.10;;;5.30;;
68910;SDS011;55953;51.650;-0.522;2022-07-21T07:47:01;12.10;;;4.60;;
68910;SDS011;55953;51.650;-0.522;2022-07-21T07:49:30;13.40;;;4.30;;
68910;SDS011;55953;51.650;-0.522;2022-07-21T07:51:59;12.30;;;4.50;;
68910;SDS011;55953;51.650;-0.522;2022-07-21T07:54:27;12.50;;;5.00;;
68910;SDS011;55953;51.650;-0.522;2022-07-21T07:56:54;10.60;;;4.90;;
68910;SDS011;55953;51.650;-0.522;2022-07-21T07:59:22;13.10;;;5.00;;
68910;SDS011;55953;51.650;-0.522;2022-07-21T08:01:50;15.30;;;5.40;;
68910;SDS011;55953;51.650;-0.522;2022-07-21T08:04:18;11.30;;;5.60;;
68910;SDS011;55953;51.650;-0.522;2022-07-21T08:06:46;16.00;;;6.40;;
68910;SDS011;55953;51.650;-0.522;2022-07-21T08:09:14;16.20;;;6.90;;
68910;SDS011;55953;51.650;-0.522;2022-07-21T08:11:42;13.80;;;6.30;;
68910;SDS011;55953;51.650;-0.522;2022-07-21T08:14:11;11.10;;;5.60;;
68910;SDS011;55953;51.650;-0.522;2022-07-21T08:16:39;11.10;;;5.80;;
68910;SDS011;55953;51.650;-0.522;2022-07-21T08:19:07;13.80;;;6.30;;
68910;SDS011;55953;51.650;-0.522;2022-07-21T08:21:35;10.10;;;5.20;;
68910;SDS011;55953;51.650;-0.522;2022-07-21T08:24:23;12.60;;;5.80;;
68910;SDS011;55953;51.650;-0.522;2022-07-21T08:26:51;12.80;;;5.70;;
68910;SDS011;55953;51.650;-0.522;2022-07-21T08:29:19;12.70;;;5.80;;
68910;SDS011;55953;51.650;-0.522;2022-07-21T08:31:47;12.60;;;5.70;;
68910;SDS011;55953;51.650;-0.522;2022-07-21T08:34:14;13.70;;;6.20;;
68910;SDS011;55953;51.650;-0.522;2022-07-21T08:36:42;16.50;;;6.20;;
68910;SDS011;55953;51.650;-0.522;2022-07-21T08:39:10;14.20;;;6.60;;
68910;SDS011;55953;51.650;-0.522;2022-07-21T08:41:40;13.20;;;5.90;;
68910;SDS011;55953;51.650;-0.522;2022-07-21T08:44:08;13.20;;;6.30;;
68910;SDS011;55953;51.650;-0.522;2022-07-21T08:46:40;13.40;;;6.00;;
68910;SDS011;55953;51.650;-0.522;2022-07-21T08:51:39;13.00;;;5.80;;
68910;SDS011;55953;51.650;-0.522;2022-07-21T08:54:07;12.20;;;6.30;;
68910;SDS011;55953;51.650;-0.522;2022-07-21T08:56:34;16.50;;;7.00;;
68910;SDS011;55953;51.650;-0.522;2022-07-21T08:59:02;13.30;;;5.60;;
68910;SDS011;55953;51.650;-0.522;2022-07-21T09:01:32;13.30;;;5.60;;
68910;SDS011;55953;51.650;-0.522;2022-07-21T09:04:19;11.90;;;5.90;;
68910;SDS011;55953;51.650;-0.522;2022-07-21T09:07:00;11.90;;;5.80;;
68910;SDS011;55953;51.650;-0.522;2022-07-21T09:09:31;14.80;;;5.80;;
68910;SDS011;55953;51.650;-0.522;2022-07-21T09:12:02;14.20;;;6.10;;
68910;SDS011;55953;51.650;-0.522;2022-07-21T09:14:32;10.60;;;5.80;;
68910;SDS011;55953;51.650;-0.522;2022-07-21T09:17:03;9.80;;;5.20;;
68910;SDS011;55953;51.650;-0.522;2022-07-21T09:19:37;14.80;;;5.40;;
68910;SDS011;55953;51.650;-0.522;2022-07-21T09:22:12;10.20;;;5.10;;
68910;SDS011;55953;51.650;-0.522;2022-07-21T09:24:51;9.40;;;5.10;;
68910;SDS011;55953;51.650;-0.522;2022-07-21T09:27:24;10.30;;;5.70;;
68910;SDS011;55953;51.650;-0.522;2022-07-21T09:29:57;9.30;;;5.70;;
68910;SDS011;55953;51.650;-0.522;2022-07-21T09:32:34;10.90;;;5.60;;
68910;SDS011;55953;51.650;-0.522;2022-07-21T09:37:36;10.90;;;4.90;;
68910;SDS011;55953;51.650;-0.522;2022-07-21T09:40:08;12.40;;;4.80;;
68910;SDS011;55953;51.650;-0.522;2022-07-21T09:42:43;11.70;;;5.50;;
68910;SDS011;55953;51.650;-0.522;2022-07-21T09:45:17;14.70;;;5.60;;
68910;SDS011;55953;51.650;-0.522;2022-07-21T09:47:46;13.20;;;5.90;;
68910;SDS011;55953;51.650;-0.522;2022-07-21T09:50:16;12.20;;;6.60;;
68910;SDS011;55953;51.650;-0.522;2022-07-21T09:52:55;13.90;;;6.50;;
68910;SDS011;55953;51.650;-0.522;2022-07-21T09:55:26;12.90;;;5.80;;
68910;SDS011;55953;51.650;-0.522;2022-07-21T09:57:56;11.40;;;4.70;;
68910;SDS011;55953;51.650;-0.522;2022-07-21T10:00:26;9.60;;;4.80;;
68910;SDS011;55953;51.650;-0.522;2022-07-21T10:02:54;12.80;;;5.90;;
68910;SDS011;55953;51.650;-0.522;2022-07-21T10:05:23;11.70;;;5.60;;
68910;SDS011;55953;51.650;-0.522;2022-07-21T10:08:02;11.00;;;5.70;;
68910;SDS011;55953;51.650;-0.522;2022-07-21T10:10:34;12.20;;;5.60;;
68910;SDS011;55953;51.650;-0.522;2022-07-21T10:13:23;10.60;;;5.10;;
68910;SDS011;55953;51.650;-0.522;2022-07-21T10:15:52;12.00;;;5.00;;
68910;SDS011;55953;51.650;-0.522;2022-07-21T10:18:24;10.20;;;5.00;;
68910;SDS011;55953;51.650;-0.522;2022-07-21T10:21:02;10.30;;;5.00;;
68910;SDS011;55953;51.650;-0.522;2022-07-21T10:23:42;10.40;;;4.90;;
68910;SDS011;55953;51.650;-0.522;2022-07-21T10:26:11;13.20;;;5.40;;
68910;SDS011;55953;51.650;-0.522;2022-07-21T10:28:40;10.90;;;4.90;;
68910;SDS011;55953;51.650;-0.522;2022-07-21T10:31:26;9.30;;;4.90;;
68910;SDS011;55953;51.650;-0.522;2022-07-21T10:33:59;12.90;;;5.00;;
68910;SDS011;55953;51.650;-0.522;2022-07-21T10:41:41;11.00;;;5.40;;
68910;SDS011;55953;51.650;-0.522;2022-07-21T10:47:06;12.60;;;5.90;;
68910;SDS011;55953;51.650;-0.522;2022-07-21T10:49:59;12.20;;;6.40;;
68910;SDS011;55953;51.650;-0.522;2022-07-21T10:55:21;10.60;;;6.30;;
68910;SDS011;55953;51.650;-0.522;2022-07-21T10:58:13;12.00;;;6.60;;
68910;SDS011;55953;51.650;-0.522;2022-07-21T11:00:51;12.50;;;5.70;;
68910;SDS011;55953;51.650;-0.522;2022-07-21T11:03:32;10.40;;;6.00;;
68910;SDS011;55953;51.650;-0.522;2022-07-21T11:08:41;14.80;;;6.60;;
68910;SDS011;55953;51.650;-0.522;2022-07-21T11:11:14;12.10;;;6.80;;
68910;SDS011;55953;51.650;-0.522;2022-07-21T11:19:44;12.10;;;7.10;;
68910;SDS011;55953;51.650;-0.522;2022-07-21T11:22:22;11.70;;;7.50;;
68910;SDS011;55953;51.650;-0.522;2022-07-21T11:24:55;10.90;;;7.30;;
68910;SDS011;55953;51.650;-0.522;2022-07-21T11:27:33;12.80;;;7.00;;
68910;SDS011;55953;51.650;-0.522;2022-07-21T11:30:05;10.00;;;6.80;;
68910;SDS011;55953;51.650;-0.522;2022-07-21T11:32:35;14.50;;;7.90;;
68910;SDS011;55953;51.650;-0.522;2022-07-21T11:35:05;13.40;;;7.70;;
68910;SDS011;55953;51.650;-0.522;2022-07-21T11:37:44;11.40;;;7.50;;
68910;SDS011;55953;51.650;-0.522;2022-07-21T11:40:15;12.00;;;7.40;;
68910;SDS011;55953;51.650;-0.522;2022-07-21T11:42:47;14.30;;;8.50;;
68910;SDS011;55953;51.650;-0.522;2022-07-21T11:45:18;10.60;;;7.30;;
68910;SDS011;55953;51.650;-0.522;2022-07-21T11:47:55;11.60;;;8.30;;
68910;SDS011;55953;51.650;-0.522;2022-07-21T11:50:23;10.90;;;7.60;;
68910;SDS011;55953;51.650;-0.522;2022-07-21T11:52:51;9.90;;;8.00;;
68910;SDS011;55953;51.650;-0.522;2022-07-21T11:55:18;13.70;;;8.50;;
68910;SDS011;55953;51.650;-0.522;2022-07-21T11:57:46;12.70;;;8.00;;
68910;SDS011;55953;51.650;-0.522;2022-07-21T12:00:15;13.90;;;7.60;;
68910;SDS011;55953;51.650;-0.522;2022-07-21T12:02:48;12.40;;;7.90;;
68910;SDS011;55953;51.650;-0.522;2022-07-21T12:05:17;12.10;;;7.50;;
68910;SDS011;55953;51.650;-0.522;2022-07-21T12:07:47;10.50;;;8.10;;
68910;SDS011;55953;51.650;-0.522;2022-07-21T12:10:27;13.50;;;7.60;;
68910;SDS011;55953;51.650;-0.522;2022-07-21T12:13:02;12.90;;;9.50;;
68910;SDS011;55953;51.650;-0.522;2022-07-21T12:15:33;13.90;;;8.30;;
68910;SDS011;55953;51.650;-0.522;2022-07-21T12:18:08;15.90;;;9.00;;
68910;SDS011;55953;51.650;-0.522;2022-07-21T12:20:45;12.90;;;9.20;;
68910;SDS011;55953;51.650;-0.522;2022-07-21T12:23:30;14.50;;;9.50;;
68910;SDS011;55953;51.650;-0.522;2022-07-21T12:26:00;15.90;;;9.50;;
68910;SDS011;55953;51.650;-0.522;2022-07-21T12:28:46;17.50;;;9.80;;
68910;SDS011;55953;51.650;-0.522;2022-07-21T12:31:18;14.70;;;9.20;;
68910;SDS011;55953;51.650;-0.522;2022-07-21T12:33:51;11.80;;;9.30;;
68910;SDS011;55953;51.650;-0.522;2022-07-21T12:36:46;14.10;;;9.10;;
68910;SDS011;55953;51.650;-0.522;2022-07-21T12:39:15;15.70;;;9.30;;
68910;SDS011;55953;51.650;-0.522;2022-07-21T12:44:53;14.00;;;9.30;;
68910;SDS011;55953;51.650;-0.522;2022-07-21T12:47:22;12.30;;;8.50;;
68910;SDS011;55953;51.650;-0.522;2022-07-21T12:50:02;14.20;;;8.80;;
68910;SDS011;55953;51.650;-0.522;2022-07-21T12:52:45;16.00;;;10.70;;
68910;SDS011;55953;51.650;-0.522;2022-07-21T12:55:13;16.40;;;9.80;;
68910;SDS011;55953;51.650;-0.522;2022-07-21T12:57:40;15.20;;;9.50;;
68910;SDS011;55953;51.650;-0.522;2022-07-21T13:00:09;14.50;;;9.70;;
68910;SDS011;55953;51.650;-0.522;2022-07-21T13:02:52;14.20;;;9.40;;
68910;SDS011;55953;51.650;-0.522;2022-07-21T13:05:22;13.00;;;9.90;;
68910;SDS011;55953;51.650;-0.522;2022-07-21T13:07:51;12.60;;;9.20;;
68910;SDS011;55953;51.650;-0.522;2022-07-21T13:10:20;12.00;;;9.50;;
68910;SDS011;55953;51.650;-0.522;2022-07-21T13:12:48;12.70;;;9.00;;
68910;SDS011;55953;51.650;-0.522;2022-07-21T13:15:17;16.40;;;9.50;;
68910;SDS011;55953;51.650;-0.522;2022-07-21T13:17:45;13.60;;;9.20;;
68910;SDS011;55953;51.650;-0.522;2022-07-21T13:20:13;13.30;;;9.30;;
68910;SDS011;55953;51.650;-0.522;2022-07-21T13:22:42;14.00;;;9.50;;
68910;SDS011;55953;51.650;-0.522;2022-07-21T13:25:11;17.20;;;10.30;;
68910;SDS011;55953;51.650;-0.522;2022-07-21T13:27:39;18.00;;;10.10;;
68910;SDS011;55953;51.650;-0.522;2022-07-21T13:30:14;14.80;;;9.40;;
68910;SDS011;55953;51.650;-0.522;2022-07-21T13:32:43;15.60;;;10.00;;
68910;SDS011;55953;51.650;-0.522;2022-07-21T13:35:12;14.50;;;10.50;;
68910;SDS011;55953;51.650;-0.522;2022-07-21T13:37:53;16.30;;;10.30;;
68910;SDS011;55953;51.650;-0.522;2022-07-21T13:40:22;13.20;;;8.60;;
68910;SDS011;55953;51.650;-0.522;2022-07-21T13:43:10;15.20;;;10.10;;
68910;SDS011;55953;51.650;-0.522;2022-07-21T13:45:59;12.90;;;9.40;;
68910;SDS011;55953;51.650;-0.522;2022-07-21T13:48:27;13.10;;;9.50;;
68910;SDS011;55953;51.650;-0.522;2022-07-21T13:50:55;12.60;;;8.90;;
68910;SDS011;55953;51.650;-0.522;2022-07-21T13:53:22;17.10;;;10.10;;
68910;SDS011;55953;51.650;-0.522;2022-07-21T13:55:50;14.70;;;9.50;;
68910;SDS011;55953;51.650;-0.522;2022-07-21T13:58:21;15.00;;;9.80;;
68910;SDS011;55953;51.650;-0.522;2022-07-21T14:00:48;13.60;;;9.70;;
68910;SDS011;55953;51.650;-0.522;2022-07-21T14:03:18;16.00;;;9.50;;
68910;SDS011;55953;51.650;-0.522;2022-07-21T14:05:46;13.40;;;10.10;;
68910;SDS011;55953;51.650;-0.522;2022-07-21T14:08:14;17.50;;;9.70;;
68910;SDS011;55953;51.650;-0.522;2022-07-21T14:10:42;20.30;;;9.40;;
68910;SDS011;55953;51.650;-0.522;2022-07-21T14:13:10;15.30;;;9.80;;
68910;SDS011;55953;51.650;-0.522;2022-07-21T14:15:38;14.50;;;8.60;;
68910;SDS011;55953;51.650;-0.522;2022-07-21T14:18:06;13.70;;;9.40;;
68910;SDS011;55953;51.650;-0.522;2022-07-21T14:20:33;14.30;;;8.90;;
68910;SDS011;55953;51.650;-0.522;2022-07-21T14:23:01;12.20;;;8.80;;
68910;SDS011;55953;51.650;-0.522;2022-07-21T14:25:29;12.40;;;9.20;;
68910;SDS011;55953;51.650;-0.522;2022-07-21T14:27:57;13.20;;;8.50;;
68910;SDS011;55953;51.650;-0.522;2022-07-21T14:30:27;15.40;;;9.20;;
68910;SDS011;55953;51.650;-0.522;2022-07-21T14:32:55;14.90;;;9.40;;
68910;SDS011;55953;51.650;-0.522;2022-07-21T14:35:24;12.30;;;9.00;;
68910;SDS011;55953;51.650;-0.522;2022-07-21T14:37:54;13.70;;;8.50;;
68910;SDS011;55953;51.650;-0.522;2022-07-21T14:40:22;11.40;;;8.10;;
68910;SDS011;55953;51.650;-0.522;2022-07-21T14:42:51;11.20;;;8.20;;
68910;SDS011;55953;51.650;-0.522;2022-07-21T14:45:22;12.60;;;7.90;;
68910;SDS011;55953;51.650;-0.522;2022-07-21T14:47:51;11.30;;;7.80;;
68910;SDS011;55953;51.650;-0.522;2022-07-21T14:50:22;9.90;;;7.30;;
68910;SDS011;55953;51.650;-0.522;2022-07-21T14:52:55;11.30;;;7.20;;
68910;SDS011;55953;51.650;-0.522;2022-07-21T14:55:26;10.80;;;7.10;;
68910;SDS011;55953;51.650;-0.522;2022-07-21T14:57:56;13.00;;;7.20;;
68910;SDS011;55953;51.650;-0.522;2022-07-21T15:00:24;12.10;;;7.40;;
68910;SDS011;55953;51.650;-0.522;2022-07-21T15:02:53;10.40;;;7.30;;
68910;SDS011;55953;51.650;-0.522;2022-07-21T15:05:21;10.40;;;6.70;;
68910;SDS011;55953;51.650;-0.522;2022-07-21T15:07:50;10.00;;;6.80;;
68910;SDS011;55953;51.650;-0.522;2022-07-21T15:10:18;11.20;;;7.30;;
68910;SDS011;55953;51.650;-0.522;2022-07-21T15:12:46;9.90;;;7.10;;